createdAt,value
2018-07-30T00:00:04.221Z,21.937
2018-07-30T00:01:03.663Z,21.937
2018-07-30T00:02:04.183Z,21.937
2018-07-30T00:03:03.703Z,21.875
2018-07-30T00:04:03.366Z,21.937
2018-07-30T00:05:04.088Z,21.937
2018-07-30T00:06:03.439Z,21.937
2018-07-30T00:07:04.115Z,21.937
2018-07-30T00:08:03.645Z,21.937
2018-07-30T00:09:04.020Z,21.937
2018-07-30T00:10:04.409Z,21.875
2018-07-30T00:11:03.861Z,21.875
2018-07-30T00:12:03.532Z,21.937
2018-07-30T00:13:03.891Z,21.937
2018-07-30T00:14:04.121Z,21.937
2018-07-30T00:15:03.916Z,22
2018-07-30T00:16:03.718Z,22
2018-07-30T00:17:04.613Z,22
2018-07-30T00:18:04.335Z,22
2018-07-30T00:19:04.985Z,22
2018-07-30T00:20:03.589Z,22
2018-07-30T00:21:03.727Z,22
2018-07-30T00:22:03.421Z,22
2018-07-30T00:23:04.233Z,22
2018-07-30T00:24:04.989Z,22
2018-07-30T00:25:03.361Z,21.937
2018-07-30T00:26:03.740Z,21.875
2018-07-30T00:27:03.769Z,21.937
2018-07-30T00:28:03.353Z,22
2018-07-30T00:29:04.125Z,21.937
2018-07-30T00:30:03.613Z,21.937
2018-07-30T00:31:04.267Z,21.937
2018-07-30T00:32:04.043Z,21.812
2018-07-30T00:33:03.573Z,21.812
2018-07-30T00:34:04.118Z,21.812
2018-07-30T00:35:03.834Z,21.812
2018-07-30T00:36:03.416Z,21.812
2018-07-30T00:37:03.841Z,21.812
2018-07-30T00:38:03.455Z,21.875
2018-07-30T00:39:03.784Z,21.937
2018-07-30T00:40:03.851Z,21.937
2018-07-30T00:41:03.432Z,22
2018-07-30T00:42:03.985Z,22
2018-07-30T00:43:03.689Z,22
2018-07-30T00:44:03.484Z,22
2018-07-30T00:45:04.094Z,22.062
2018-07-30T00:46:04.728Z,22.062
2018-07-30T00:47:04.007Z,22.062
2018-07-30T00:48:03.753Z,22.062
2018-07-30T00:49:03.489Z,22.062
2018-07-30T00:50:03.433Z,22.125
2018-07-30T00:51:04.247Z,22.125
2018-07-30T00:52:03.903Z,22.125
2018-07-30T00:53:03.776Z,22.125
2018-07-30T00:54:03.597Z,22.062
2018-07-30T00:55:04.293Z,22.125
2018-07-30T00:56:03.748Z,22.062
2018-07-30T00:57:03.517Z,22.187
2018-07-30T00:58:04.168Z,22.125
2018-07-30T01:00:04.009Z,22.187
2018-07-30T01:01:03.412Z,22.187
2018-07-30T01:02:04.156Z,22.187
2018-07-30T01:03:03.384Z,22.25
2018-07-30T01:04:03.895Z,22.312
2018-07-30T01:05:03.722Z,22.25
2018-07-30T01:06:03.584Z,22.25
2018-07-30T01:07:04.146Z,22.187
2018-07-30T01:10:20.097Z,22.187
2018-07-30T01:10:21.738Z,22.25
2018-07-30T01:11:03.876Z,22.187
2018-07-30T01:11:15.912Z,22.187
2018-07-30T01:12:03.820Z,22.125
2018-07-30T01:13:03.365Z,22.187
2018-07-30T01:14:03.943Z,22.187
2018-07-30T01:15:03.574Z,22.187
2018-07-30T01:16:04.009Z,22.187
2018-07-30T01:17:03.868Z,22.187
2018-07-30T01:18:03.329Z,22.125
2018-07-30T01:19:03.957Z,22.062
2018-07-30T01:20:03.406Z,22.062
2018-07-30T01:21:03.920Z,22.062
2018-07-30T01:22:03.475Z,22.125
2018-07-30T01:23:04.022Z,22.062
2018-07-30T01:24:03.500Z,22.062
2018-07-30T01:25:03.887Z,21.937
2018-07-30T01:26:03.473Z,21.937
2018-07-30T01:27:04.016Z,21.937
2018-07-30T01:28:03.661Z,21.937
2018-07-30T01:29:03.710Z,22
2018-07-30T01:30:03.357Z,22
2018-07-30T01:31:03.879Z,22
2018-07-30T01:32:03.507Z,22
2018-07-30T01:33:03.949Z,22
2018-07-30T01:34:03.506Z,22
2018-07-30T01:35:04.090Z,22
2018-07-30T01:36:03.738Z,22.062
2018-07-30T01:37:04.171Z,22.062
2018-07-30T01:38:03.689Z,22.062
2018-07-30T01:39:03.490Z,22.062
2018-07-30T01:40:04.069Z,22.062
2018-07-30T01:41:03.728Z,22.062
2018-07-30T01:42:03.283Z,22
2018-07-30T01:43:03.659Z,22
2018-07-30T01:44:03.845Z,22
2018-07-30T01:45:03.873Z,21.937
2018-07-30T01:46:04.270Z,21.937
2018-07-30T01:47:03.622Z,21.937
2018-07-30T01:48:03.955Z,21.937
2018-07-30T01:49:03.355Z,21.937
2018-07-30T01:50:04.037Z,21.875
2018-07-30T01:51:03.611Z,21.937
2018-07-30T01:52:04.140Z,21.875
2018-07-30T01:53:03.490Z,21.875
2018-07-30T01:54:03.967Z,21.875
2018-07-30T01:55:03.835Z,21.937
2018-07-30T01:56:04.174Z,21.875
2018-07-30T01:57:03.788Z,21.875
2018-07-30T01:58:03.340Z,21.875
2018-07-30T01:59:03.849Z,21.875
2018-07-30T02:00:03.462Z,21.875
2018-07-30T02:01:03.716Z,21.875
2018-07-30T02:02:03.578Z,21.875
2018-07-30T02:03:04.039Z,21.937
2018-07-30T02:04:03.991Z,21.937
2018-07-30T02:05:03.473Z,21.875
2018-07-30T02:06:04.023Z,21.937
2018-07-30T02:07:03.456Z,21.937
2018-07-30T02:08:03.777Z,21.937
2018-07-30T02:09:03.615Z,21.875
2018-07-30T02:10:03.577Z,21.875
2018-07-30T02:11:04.004Z,21.875
2018-07-30T02:12:03.402Z,21.875
2018-07-30T02:13:04.053Z,21.875
2018-07-30T02:14:03.565Z,21.875
2018-07-30T02:15:04.025Z,21.812
2018-07-30T02:16:03.670Z,21.812
2018-07-30T02:17:04.259Z,21.75
2018-07-30T02:18:03.678Z,21.75
2018-07-30T02:19:04.174Z,21.75
2018-07-30T02:20:03.894Z,21.75
2018-07-30T02:21:03.529Z,21.812
2018-07-30T02:22:03.991Z,21.812
2018-07-30T02:23:03.702Z,21.687
2018-07-30T02:24:03.431Z,21.687
2018-07-30T02:25:09.624Z,21.75
2018-07-30T02:26:04.299Z,21.75
2018-07-30T02:27:03.772Z,21.75
2018-07-30T02:28:03.294Z,21.75
2018-07-30T02:29:04.670Z,21.75
2018-07-30T02:30:04.264Z,21.687
2018-07-30T02:31:03.728Z,21.687
2018-07-30T02:32:04.106Z,21.75
2018-07-30T02:33:03.492Z,21.812
2018-07-30T02:34:04.121Z,21.75
2018-07-30T02:35:03.523Z,21.812
2018-07-30T02:36:04.183Z,21.812
2018-07-30T02:37:03.749Z,21.812
2018-07-30T02:38:04.230Z,21.812
2018-07-30T02:39:03.945Z,21.812
2018-07-30T02:40:03.482Z,21.812
2018-07-30T02:41:03.961Z,21.75
2018-07-30T02:42:03.718Z,21.812
2018-07-30T02:43:04.158Z,21.812
2018-07-30T02:44:03.818Z,21.812
2018-07-30T02:45:04.318Z,21.812
2018-07-30T02:46:03.485Z,21.812
2018-07-30T02:47:04.036Z,21.875
2018-07-30T02:48:03.544Z,21.875
2018-07-30T02:49:03.483Z,21.875
2018-07-30T02:50:04.195Z,21.875
2018-07-30T02:51:03.840Z,21.875
2018-07-30T02:52:03.518Z,21.875
2018-07-30T02:53:04.162Z,21.812
2018-07-30T02:54:03.391Z,21.812
2018-07-30T02:55:04.086Z,21.812
2018-07-30T02:56:03.748Z,21.812
2018-07-30T02:57:03.252Z,21.812
2018-07-30T02:58:03.921Z,21.812
2018-07-30T02:59:03.484Z,21.812
2018-07-30T03:00:03.941Z,21.812
2018-07-30T03:01:03.696Z,21.812
2018-07-30T03:02:04.216Z,21.75
2018-07-30T03:03:03.786Z,21.75
2018-07-30T03:04:03.829Z,21.75
2018-07-30T03:05:03.485Z,21.75
2018-07-30T03:06:04.141Z,21.75
2018-07-30T03:07:03.700Z,21.75
2018-07-30T03:08:04.369Z,21.625
2018-07-30T03:09:03.941Z,21.625
2018-07-30T03:10:03.384Z,21.625
2018-07-30T03:11:04.070Z,21.625
2018-07-30T03:12:03.547Z,21.687
2018-07-30T03:13:03.948Z,21.625
2018-07-30T03:14:03.471Z,21.625
2018-07-30T03:15:03.883Z,21.625
2018-07-30T03:16:03.527Z,21.625
2018-07-30T03:17:05.236Z,21.687
2018-07-30T03:18:03.913Z,21.625
2018-07-30T03:19:04.293Z,21.625
2018-07-30T03:20:03.622Z,21.625
2018-07-30T03:21:04.356Z,21.687
2018-07-30T03:22:03.879Z,21.687
2018-07-30T03:23:03.291Z,21.687
2018-07-30T03:24:04.120Z,21.625
2018-07-30T03:25:03.560Z,21.687
2018-07-30T03:26:04.168Z,21.75
2018-07-30T03:27:03.475Z,21.687
2018-07-30T03:28:04.262Z,21.75
2018-07-30T03:29:03.661Z,21.687
2018-07-30T03:30:04.337Z,21.687
2018-07-30T03:31:03.650Z,21.687
2018-07-30T03:32:05.254Z,21.75
2018-07-30T03:33:03.762Z,21.687
2018-07-30T03:34:03.336Z,21.75
2018-07-30T03:35:03.822Z,21.75
2018-07-30T03:36:03.447Z,21.75
2018-07-30T03:37:04.050Z,21.875
2018-07-30T03:38:03.391Z,22
2018-07-30T03:39:03.935Z,22.25
2018-07-30T03:40:04.244Z,22.375
2018-07-30T03:41:03.765Z,22.562
2018-07-30T03:42:03.516Z,22.687
2018-07-30T03:43:04.253Z,22.687
2018-07-30T03:44:03.456Z,22.625
2018-07-30T03:45:03.927Z,22.437
2018-07-30T03:46:03.356Z,22.375
2018-07-30T03:47:04.052Z,22.437
2018-07-30T03:48:04.054Z,22.562
2018-07-30T03:49:03.506Z,22.625
2018-07-30T03:50:04.066Z,22.687
2018-07-30T03:51:04.678Z,22.75
2018-07-30T03:52:03.351Z,22.812
2018-07-30T03:53:03.820Z,22.812
2018-07-30T03:54:04.254Z,22.75
2018-07-30T03:55:03.650Z,22.437
2018-07-30T03:56:04.194Z,22.312
2018-07-30T03:57:03.425Z,22.125
2018-07-30T03:58:03.887Z,22.062
2018-07-30T03:59:03.509Z,21.937
2018-07-30T04:00:04.055Z,21.812
2018-07-30T04:01:03.485Z,21.75
2018-07-30T04:02:03.582Z,21.687
2018-07-30T04:03:03.682Z,21.625
2018-07-30T04:04:04.260Z,21.5
2018-07-30T04:05:03.881Z,21.5
2018-07-30T04:06:03.386Z,21.5
2018-07-30T04:07:03.956Z,21.437
2018-07-30T04:08:03.472Z,21.437
2018-07-30T04:09:04.286Z,21.375
2018-07-30T04:10:03.668Z,21.437
2018-07-30T04:11:04.117Z,21.375
2018-07-30T04:12:03.853Z,21.437
2018-07-30T04:13:03.598Z,21.375
2018-07-30T04:14:03.961Z,21.375
2018-07-30T04:15:03.704Z,21.437
2018-07-30T04:16:03.783Z,21.437
2018-07-30T04:17:03.452Z,21.437
2018-07-30T04:18:03.741Z,21.437
2018-07-30T04:19:03.594Z,21.437
2018-07-30T04:20:03.961Z,21.437
2018-07-30T04:21:03.457Z,21.437
2018-07-30T04:22:04.039Z,21.437
2018-07-30T04:23:03.996Z,21.437
2018-07-30T04:24:03.814Z,21.437
2018-07-30T04:25:04.010Z,21.437
2018-07-30T04:26:03.562Z,21.5
2018-07-30T04:27:05.076Z,21.5
2018-07-30T04:28:03.385Z,21.5
2018-07-30T04:29:04.238Z,21.5
2018-07-30T04:30:03.507Z,21.5
2018-07-30T04:31:04.012Z,21.5
2018-07-30T04:32:03.561Z,21.5
2018-07-30T04:33:04.044Z,21.5
2018-07-30T04:34:03.621Z,21.437
2018-07-30T04:35:04.387Z,21.437
2018-07-30T04:36:03.820Z,21.437
2018-07-30T04:37:03.499Z,21.437
2018-07-30T04:38:03.971Z,21.437
2018-07-30T04:39:04.195Z,21.437
2018-07-30T04:40:03.684Z,21.437
2018-07-30T04:41:03.559Z,21.437
2018-07-30T04:42:03.438Z,21.437
2018-07-30T04:43:04.259Z,21.437
2018-07-30T04:44:03.375Z,21.375
2018-07-30T04:45:03.797Z,21.375
2018-07-30T04:46:04.293Z,21.437
2018-07-30T04:47:03.947Z,21.437
2018-07-30T04:48:03.442Z,21.375
2018-07-30T04:49:03.923Z,21.375
2018-07-30T04:50:03.656Z,21.375
2018-07-30T04:51:04.166Z,21.375
2018-07-30T04:52:03.422Z,21.437
2018-07-30T04:53:03.890Z,21.437
2018-07-30T04:54:03.942Z,21.5
2018-07-30T04:55:03.655Z,21.5
2018-07-30T04:56:03.666Z,21.5
2018-07-30T04:57:04.382Z,21.5
2018-07-30T04:58:03.849Z,21.5
2018-07-30T04:59:03.396Z,21.5
2018-07-30T05:00:04.113Z,21.437
2018-07-30T05:01:03.400Z,21.437
2018-07-30T05:02:03.878Z,21.437
2018-07-30T05:03:03.422Z,21.437
2018-07-30T05:04:03.976Z,21.437
2018-07-30T05:05:03.812Z,21.437
2018-07-30T05:06:03.398Z,21.437
2018-07-30T05:07:03.583Z,21.437
2018-07-30T05:08:05.119Z,21.437
2018-07-30T05:09:03.851Z,21.437
2018-07-30T05:10:03.338Z,21.437
2018-07-30T05:11:04.324Z,21.437
2018-07-30T05:12:03.702Z,21.437
2018-07-30T05:13:04.240Z,21.437
2018-07-30T05:14:03.891Z,21.437
2018-07-30T05:15:04.261Z,21.437
2018-07-30T05:16:03.580Z,21.5
2018-07-30T05:17:04.233Z,21.5
2018-07-30T05:18:03.826Z,21.5
2018-07-30T05:19:03.273Z,21.5
2018-07-30T05:20:04.092Z,21.5
2018-07-30T05:21:03.407Z,21.562
2018-07-30T05:22:03.975Z,21.562
2018-07-30T05:23:03.603Z,21.625
2018-07-30T05:24:04.020Z,21.625
2018-07-30T05:25:03.577Z,21.562
2018-07-30T05:26:03.937Z,21.625
2018-07-30T05:27:03.584Z,21.625
2018-07-30T05:28:05.199Z,21.625
2018-07-30T05:29:03.506Z,21.625
2018-07-30T05:30:04.200Z,21.687
2018-07-30T05:31:04.320Z,21.687
2018-07-30T05:32:03.640Z,21.75
2018-07-30T05:33:05.558Z,21.812
2018-07-30T05:34:04.019Z,21.875
2018-07-30T05:35:04.598Z,21.937
2018-07-30T05:36:03.898Z,21.937
2018-07-30T05:37:03.413Z,22
2018-07-30T05:38:03.407Z,22.062
2018-07-30T05:39:04.446Z,22.062
2018-07-30T05:40:03.912Z,22.062
2018-07-30T05:41:03.370Z,22.187
2018-07-30T05:42:04.322Z,22.187
2018-07-30T05:43:04.151Z,22.25
2018-07-30T05:44:03.849Z,22.375
2018-07-30T05:45:04.250Z,22.437
2018-07-30T05:46:03.614Z,22.437
2018-07-30T05:47:04.058Z,22.5
2018-07-30T05:48:03.507Z,22.562
2018-07-30T05:49:04.125Z,22.625
2018-07-30T05:50:03.524Z,22.687
2018-07-30T05:51:04.081Z,22.75
2018-07-30T05:52:03.500Z,22.812
2018-07-30T05:53:03.390Z,22.875
2018-07-30T05:54:03.982Z,22.937
2018-07-30T05:55:03.545Z,22.937
2018-07-30T05:56:04.145Z,23
2018-07-30T05:57:03.468Z,23.062
2018-07-30T05:58:03.946Z,23.062
2018-07-30T05:59:03.399Z,23.125
2018-07-30T06:00:04.016Z,23.125
2018-07-30T06:01:03.628Z,23.125
2018-07-30T06:02:04.308Z,23.125
2018-07-30T06:03:03.843Z,23.187
2018-07-30T06:04:04.188Z,23.187
2018-07-30T06:05:03.618Z,23.125
2018-07-30T06:06:03.588Z,23.187
2018-07-30T06:07:04.448Z,23.25
2018-07-30T06:08:03.677Z,23.25
2018-07-30T06:09:04.632Z,23.25
2018-07-30T06:10:04.292Z,23.187
2018-07-30T06:11:03.697Z,23.187
2018-07-30T06:12:03.997Z,23.187
2018-07-30T06:13:03.751Z,23.187
2018-07-30T06:14:03.396Z,23.187
2018-07-30T06:15:03.859Z,23.187
2018-07-30T06:16:04.358Z,23.187
2018-07-30T06:17:03.988Z,23.187
2018-07-30T06:18:03.823Z,23.125
2018-07-30T06:19:04.412Z,23.187
2018-07-30T06:20:04.256Z,23.187
2018-07-30T06:21:03.850Z,23.25
2018-07-30T06:22:03.370Z,23.312
2018-07-30T06:23:03.865Z,23.375
2018-07-30T06:24:03.635Z,23.437
2018-07-30T06:25:04.353Z,23.562
2018-07-30T06:26:03.592Z,23.562
2018-07-30T06:27:04.009Z,23.625
2018-07-30T06:28:03.659Z,23.687
2018-07-30T06:29:03.485Z,23.75
2018-07-30T06:30:04.252Z,23.75
2018-07-30T06:31:03.899Z,23.812
2018-07-30T06:32:03.287Z,23.812
2018-07-30T06:33:03.841Z,23.812
2018-07-30T06:34:03.409Z,23.812
2018-07-30T06:35:03.677Z,23.812
2018-07-30T06:36:04.321Z,23.937
2018-07-30T06:37:03.898Z,24.062
2018-07-30T06:38:03.343Z,24.437
2018-07-30T06:39:05.263Z,24.75
2018-07-30T06:40:03.761Z,25.062
2018-07-30T06:41:04.270Z,25.312
2018-07-30T06:42:03.601Z,25.562
2018-07-30T06:43:05.391Z,25.812
2018-07-30T06:44:03.621Z,26.312
2018-07-30T06:45:04.196Z,26.75
2018-07-30T06:46:03.605Z,27.125
2018-07-30T06:47:04.281Z,27.375
2018-07-30T06:48:03.722Z,27.75
2018-07-30T06:49:04.222Z,27.875
2018-07-30T06:50:03.733Z,27.937
2018-07-30T06:51:04.543Z,28.125
2018-07-30T06:52:03.494Z,28.25
2018-07-30T06:53:03.876Z,28.375
2018-07-30T06:54:03.405Z,28.687
2018-07-30T06:55:03.690Z,28.937
2018-07-30T06:56:04.284Z,28.875
2018-07-30T06:57:03.621Z,29.062
2018-07-30T06:58:04.248Z,29.375
2018-07-30T06:59:03.562Z,29.5
2018-07-30T07:00:04.161Z,29.437
2018-07-30T07:01:04.167Z,29.437
2018-07-30T07:02:03.601Z,29.437
2018-07-30T07:03:04.122Z,29.375
2018-07-30T07:04:03.729Z,29.25
2018-07-30T07:05:04.111Z,29.375
2018-07-30T07:06:03.253Z,29.562
2018-07-30T07:07:04.142Z,29.5
2018-07-30T07:08:03.752Z,29.875
2018-07-30T07:09:04.492Z,30.187
2018-07-30T07:10:04.131Z,30.437
2018-07-30T07:11:03.650Z,30.312
2018-07-30T07:12:03.470Z,30.25
2018-07-30T07:13:04.216Z,30.25
2018-07-30T07:14:03.416Z,30.062
2018-07-30T07:15:04.062Z,30.187
2018-07-30T07:16:03.650Z,30.312
2018-07-30T07:17:04.283Z,30.5
2018-07-30T07:18:03.789Z,30.687
2018-07-30T07:19:03.575Z,30.875
2018-07-30T07:20:04.253Z,30.812
2018-07-30T07:21:03.888Z,30.812
2018-07-30T07:22:03.423Z,30.875
2018-07-30T07:23:03.795Z,31.062
2018-07-30T07:24:04.132Z,30.937
2018-07-30T07:25:03.639Z,30.687
2018-07-30T07:26:04.090Z,30.75
2018-07-30T07:27:04.123Z,30.812
2018-07-30T07:28:03.815Z,30.875
2018-07-30T07:29:04.653Z,30.875
2018-07-30T07:30:04.363Z,30.875
2018-07-30T07:31:03.712Z,31.062
2018-07-30T07:32:04.333Z,31.062
2018-07-30T07:33:03.736Z,31.187
2018-07-30T07:34:03.702Z,31.062
2018-07-30T07:35:03.420Z,31.125
2018-07-30T07:36:04.036Z,31.25
2018-07-30T07:37:03.824Z,31.312
2018-07-30T07:38:04.264Z,31.375
2018-07-30T07:39:04.076Z,31.312
2018-07-30T07:40:03.573Z,31.5
2018-07-30T07:41:04.278Z,31.625
2018-07-30T07:42:03.491Z,31.687
2018-07-30T07:43:03.981Z,31.687
2018-07-30T07:44:03.567Z,31.875
2018-07-30T07:45:04.021Z,32.062
2018-07-30T07:46:04.001Z,32.062
2018-07-30T07:47:03.812Z,32.312
2018-07-30T07:48:03.594Z,32.437
2018-07-30T07:49:04.055Z,32.375
2018-07-30T07:50:03.963Z,32.25
2018-07-30T07:51:03.566Z,32.062
2018-07-30T07:52:04.340Z,32.062
2018-07-30T07:53:03.552Z,32.125
2018-07-30T07:54:04.224Z,32.125
2018-07-30T07:55:03.702Z,32.187
2018-07-30T07:56:04.237Z,32.25
2018-07-30T07:57:03.754Z,32.312
2018-07-30T07:58:03.688Z,32.312
2018-07-30T07:59:03.368Z,32.062
2018-07-30T08:00:03.839Z,32.125
2018-07-30T08:01:03.456Z,32
2018-07-30T08:02:04.052Z,32
2018-07-30T08:03:03.637Z,32.062
2018-07-30T08:04:03.959Z,32.062
2018-07-30T08:05:04.179Z,32.062
2018-07-30T08:06:03.809Z,32.125
2018-07-30T08:07:04.393Z,32.25
2018-07-30T08:08:03.901Z,32.375
2018-07-30T08:09:04.615Z,32.562
2018-07-30T08:10:03.539Z,32.625
2018-07-30T08:11:04.069Z,32.562
2018-07-30T08:12:03.769Z,32.25
2018-07-30T08:13:04.371Z,32.062
2018-07-30T08:14:03.523Z,31.875
2018-07-30T08:15:04.053Z,31.812
2018-07-30T08:16:03.687Z,31.875
2018-07-30T08:17:04.330Z,31.812
2018-07-30T08:18:04.792Z,31.937
2018-07-30T08:19:04.282Z,31.875
2018-07-30T08:20:03.756Z,31.875
2018-07-30T08:21:04.137Z,31.5
2018-07-30T08:22:03.614Z,31.437
2018-07-30T08:23:04.091Z,31.562
2018-07-30T08:24:03.646Z,31.562
2018-07-30T08:25:04.131Z,31.687
2018-07-30T08:26:03.685Z,31.625
2018-07-30T08:27:03.414Z,31.625
2018-07-30T08:28:03.968Z,31.687
2018-07-30T08:29:03.641Z,31.687
2018-07-30T08:30:04.163Z,31.75
2018-07-30T08:31:04.265Z,31.687
2018-07-30T08:32:03.849Z,31.562
2018-07-30T08:33:04.170Z,31.437
2018-07-30T08:34:03.794Z,31.437
2018-07-30T08:35:03.371Z,31.5
2018-07-30T08:36:04.489Z,31.562
2018-07-30T08:37:03.602Z,31.437
2018-07-30T08:38:03.340Z,31.25
2018-07-30T08:39:04.087Z,31.062
2018-07-30T08:40:03.831Z,31.187
2018-07-30T08:41:04.189Z,31.187
2018-07-30T08:42:03.821Z,31.187
2018-07-30T08:43:03.479Z,31.25
2018-07-30T08:44:04.016Z,31
2018-07-30T08:45:03.596Z,30.937
2018-07-30T08:46:04.229Z,30.812
2018-07-30T08:47:03.577Z,30.687
2018-07-30T08:48:04.329Z,30.687
2018-07-30T08:49:03.606Z,30.562
2018-07-30T08:50:04.151Z,30.625
2018-07-30T08:51:03.755Z,30.687
2018-07-30T08:52:03.384Z,30.687
2018-07-30T08:53:04.153Z,30.812
2018-07-30T08:54:03.636Z,30.875
2018-07-30T08:55:03.651Z,30.875
2018-07-30T08:56:03.611Z,30.687
2018-07-30T08:57:04.265Z,30.687
2018-07-30T08:58:03.535Z,30.562
2018-07-30T08:59:04.231Z,30.562
2018-07-30T09:00:03.701Z,30.625
2018-07-30T09:01:04.400Z,30.875
2018-07-30T09:02:03.998Z,30.75
2018-07-30T09:03:03.495Z,30.562
2018-07-30T09:04:04.168Z,30.375
2018-07-30T09:05:03.856Z,30.437
2018-07-30T09:06:03.420Z,30.437
2018-07-30T09:07:03.914Z,30.437
2018-07-30T09:08:03.460Z,30.437
2018-07-30T09:09:04.212Z,30.5
2018-07-30T09:10:03.939Z,30.625
2018-07-30T09:11:03.284Z,30.75
2018-07-30T09:12:03.863Z,30.625
2018-07-30T09:13:03.398Z,30.687
2018-07-30T09:14:03.802Z,30.687
2018-07-30T09:15:03.444Z,30.5
2018-07-30T09:16:04.032Z,30.5
2018-07-30T09:17:03.651Z,30.437
2018-07-30T09:18:04.207Z,30.437
2018-07-30T09:19:03.691Z,30.375
2018-07-30T09:20:04.038Z,30.25
2018-07-30T09:21:03.682Z,30.125
2018-07-30T09:22:04.181Z,30.187
2018-07-30T09:23:03.816Z,30.25
2018-07-30T09:24:04.268Z,30.312
2018-07-30T09:25:03.779Z,30.5
2018-07-30T09:26:05.289Z,30.687
2018-07-30T09:27:03.574Z,30.625
2018-07-30T09:28:04.255Z,30.625
2018-07-30T09:29:03.751Z,30.625
2018-07-30T09:30:03.520Z,30.687
2018-07-30T09:31:04.305Z,30.687
2018-07-30T09:32:03.701Z,30.75
2018-07-30T09:33:04.214Z,30.75
2018-07-30T09:34:03.721Z,30.75
2018-07-30T09:35:03.348Z,30.75
2018-07-30T09:36:03.929Z,30.687
2018-07-30T09:37:04.483Z,30.75
2018-07-30T09:38:04.091Z,30.75
2018-07-30T09:39:03.887Z,30.75
2018-07-30T09:40:04.216Z,30.75
2018-07-30T09:41:03.581Z,30.875
2018-07-30T09:42:04.216Z,30.875
2018-07-30T09:43:03.819Z,31
2018-07-30T09:44:04.404Z,31.062
2018-07-30T09:45:03.496Z,30.875
2018-07-30T09:46:04.236Z,30.812
2018-07-30T09:47:03.555Z,30.875
2018-07-30T09:50:04.272Z,30.812
2018-07-30T09:51:03.760Z,30.812
2018-07-30T09:52:04.236Z,30.875
2018-07-30T09:53:03.758Z,31
2018-07-30T09:54:03.371Z,31.125
2018-07-30T09:55:03.980Z,31.125
2018-07-30T09:56:04.280Z,31.062
2018-07-30T09:57:03.882Z,31
2018-07-30T09:58:03.331Z,31.125
2018-07-30T09:59:04.368Z,31.062
2018-07-30T10:00:04.171Z,31.125
2018-07-30T10:01:03.633Z,31.187
2018-07-30T10:02:04.133Z,31.312
2018-07-30T10:03:03.729Z,31.5
2018-07-30T10:04:04.269Z,31.562
2018-07-30T10:05:03.631Z,31.687
2018-07-30T10:06:04.376Z,31.75
2018-07-30T10:07:04.102Z,31.812
2018-07-30T10:08:03.849Z,31.875
2018-07-30T10:09:03.615Z,31.875
2018-07-30T10:10:03.804Z,31.812
2018-07-30T10:11:04.172Z,31.625
2018-07-30T10:12:03.876Z,31.625
2018-07-30T10:13:03.623Z,31.687
2018-07-30T10:14:03.732Z,31.687
2018-07-30T10:15:03.384Z,31.812
2018-07-30T10:16:04.006Z,32
2018-07-30T10:17:03.666Z,32.062
2018-07-30T10:18:04.482Z,32.062
2018-07-30T10:19:04.039Z,31.875
2018-07-30T10:20:03.494Z,31.875
2018-07-30T10:21:03.743Z,31.812
2018-07-30T10:22:03.892Z,31.75
2018-07-30T10:23:03.493Z,31.687
2018-07-30T10:24:04.273Z,31.75
2018-07-30T10:25:03.866Z,31.75
2018-07-30T10:26:03.590Z,31.812
2018-07-30T10:27:04.265Z,31.875
2018-07-30T10:28:03.902Z,32
2018-07-30T10:29:03.931Z,32.062
2018-07-30T10:30:03.549Z,32.062
2018-07-30T10:31:04.061Z,32.187
2018-07-30T10:32:04.181Z,32.187
2018-07-30T10:33:03.731Z,32.25
2018-07-30T10:34:04.370Z,32.312
2018-07-30T10:35:03.701Z,32.125
2018-07-30T10:36:03.311Z,32.187
2018-07-30T10:37:03.414Z,32.125
2018-07-30T10:38:03.796Z,32.125
2018-07-30T10:39:04.634Z,32.125
2018-07-30T10:40:04.211Z,32.187
2018-07-30T10:43:03.583Z,31.875
2018-07-30T10:44:04.257Z,31.875
2018-07-30T10:45:03.856Z,31.75
2018-07-30T10:46:03.573Z,31.687
2018-07-30T10:47:04.171Z,31.75
2018-07-30T10:48:03.826Z,31.875
2018-07-30T10:49:04.249Z,31.937
2018-07-30T10:50:03.496Z,32.062
2018-07-30T10:51:04.115Z,32.125
2018-07-30T10:52:03.624Z,32
2018-07-30T10:53:04.230Z,32
2018-07-30T10:54:03.768Z,32
2018-07-30T10:55:03.485Z,32.062
2018-07-30T10:56:04.111Z,32
2018-07-30T10:57:03.807Z,31.937
2018-07-30T10:58:03.272Z,31.937
2018-07-30T10:59:03.849Z,31.937
2018-07-30T11:00:03.536Z,31.937
2018-07-30T11:01:04.193Z,31.937
2018-07-30T11:02:03.441Z,31.937
2018-07-30T11:03:03.552Z,32
2018-07-30T11:04:04.023Z,32
2018-07-30T11:05:03.673Z,32
2018-07-30T11:06:04.609Z,32.062
2018-07-30T11:07:04.016Z,31.937
2018-07-30T11:08:04.268Z,31.937
2018-07-30T11:09:03.887Z,32
2018-07-30T11:10:03.274Z,32
2018-07-30T11:11:03.828Z,31.937
2018-07-30T11:12:03.556Z,31.875
2018-07-30T11:13:04.134Z,31.937
2018-07-30T11:14:04.064Z,32
2018-07-30T11:15:04.088Z,32.062
2018-07-30T11:16:04.471Z,31.937
2018-07-30T11:17:03.959Z,32
2018-07-30T11:18:03.752Z,31.875
2018-07-30T11:19:03.438Z,31.812
2018-07-30T11:20:04.069Z,31.875
2018-07-30T11:21:03.627Z,31.937
2018-07-30T11:22:04.154Z,32.062
2018-07-30T11:23:03.615Z,32.187
2018-07-30T11:24:04.161Z,32.25
2018-07-30T11:25:03.755Z,32.375
2018-07-30T11:26:03.350Z,32.375
2018-07-30T11:27:03.905Z,32.437
2018-07-30T11:28:03.582Z,32.25
2018-07-30T11:29:03.573Z,32.187
2018-07-30T11:30:04.111Z,32.187
2018-07-30T11:31:03.800Z,32.187
2018-07-30T11:32:04.001Z,32.187
2018-07-30T11:33:03.766Z,32.062
2018-07-30T11:34:03.409Z,32.187
2018-07-30T11:35:04.085Z,32.25
2018-07-30T11:36:03.650Z,32.312
2018-07-30T11:37:04.007Z,32.312
2018-07-30T11:38:03.504Z,32.312
2018-07-30T11:39:04.280Z,32.25
2018-07-30T11:40:04.519Z,32.25
2018-07-30T11:41:04.105Z,32.187
2018-07-30T11:42:03.760Z,32
2018-07-30T11:43:03.387Z,32
2018-07-30T11:44:03.845Z,32.062
2018-07-30T11:45:04.233Z,32.062
2018-07-30T11:46:03.821Z,32.125
2018-07-30T11:47:03.984Z,32.25
2018-07-30T11:48:03.683Z,32.312
2018-07-30T11:49:03.688Z,32.5
2018-07-30T11:50:04.193Z,32.562
2018-07-30T11:51:03.504Z,32.687
2018-07-30T11:52:04.258Z,32.812
2018-07-30T11:53:03.503Z,32.937
2018-07-30T11:54:04.036Z,32.937
2018-07-30T11:55:03.691Z,32.937
2018-07-30T11:56:04.441Z,32.875
2018-07-30T11:57:03.371Z,32.875
2018-07-30T11:58:03.803Z,32.937
2018-07-30T11:59:04.096Z,33
2018-07-30T12:00:03.577Z,33
2018-07-30T12:01:04.169Z,33
2018-07-30T12:02:03.562Z,33.062
2018-07-30T12:03:04.100Z,33.125
2018-07-30T12:04:03.728Z,33.25
2018-07-30T12:05:03.422Z,33.312
2018-07-30T12:06:03.942Z,33.375
2018-07-30T12:07:03.646Z,33.312
2018-07-30T12:08:04.236Z,33.187
2018-07-30T12:09:04.298Z,33.125
2018-07-30T12:10:03.669Z,33.062
2018-07-30T12:11:04.226Z,33.062
2018-07-30T12:12:03.710Z,33.062
2018-07-30T12:13:04.397Z,33.125
2018-07-30T12:14:03.467Z,33.312
2018-07-30T12:15:03.838Z,33.375
2018-07-30T12:16:04.323Z,33.437
2018-07-30T12:17:04.098Z,33.375
2018-07-30T12:18:03.782Z,33.375
2018-07-30T12:19:03.437Z,33.375
2018-07-30T12:20:03.349Z,33.437
2018-07-30T12:21:04.234Z,33.437
2018-07-30T12:22:03.904Z,33.375
2018-07-30T12:23:03.462Z,33.437
2018-07-30T12:24:03.442Z,33.562
2018-07-30T12:25:03.771Z,33.5
2018-07-30T12:26:04.007Z,33.375
2018-07-30T12:27:03.740Z,33.437
2018-07-30T12:28:03.920Z,33.5
2018-07-30T12:29:04.316Z,33.562
2018-07-30T12:30:04.145Z,33.687
2018-07-30T12:31:03.789Z,33.812
2018-07-30T12:32:03.433Z,33.875
2018-07-30T12:33:04.084Z,34
2018-07-30T12:34:03.647Z,34.125
2018-07-30T12:35:04.151Z,34.125
2018-07-30T12:36:03.768Z,34.125
2018-07-30T12:37:03.397Z,34.25
2018-07-30T12:38:04.032Z,34.312
2018-07-30T12:39:03.872Z,34.5
2018-07-30T12:40:03.906Z,34.687
2018-07-30T12:41:03.271Z,34.75
2018-07-30T12:42:03.829Z,34.875
2018-07-30T12:43:03.616Z,35
2018-07-30T12:44:04.144Z,35
2018-07-30T12:45:03.895Z,34.937